Time;durP1;ratioP1;P1;durP2;ratioP2;P2;SDS_P1;SDS_P2;PMS_P1;PMS_P2;Temp;Humidity;BMP_temperature;BMP_pressure;BME280_temperature;BME280_humidity;BME280_pressure;Samples;Min_cycle;Max_cycle;Signal;HPM_P1;HPM_P2
2022/09/12 00:02:00;;;;;;;13.13;3.40;;;;;;;;;;3394213;42;20087;-64
2022/09/12 00:04:27;;;;;;;7.85;2.90;;;;;;;;;;3393845;42;20097;-63
2022/09/12 00:06:53;;;;;;;8.77;3.27;;;;;;;;;;3394653;42;20090;-64
2022/09/12 00:09:19;;;;;;;8.07;3.00;;;;;;;;;;3394783;42;20102;-64
2022/09/12 00:11:45;;;;;;;8.88;3.15;;;;;;;;;;3394903;42;20089;-64
2022/09/12 00:14:13;;;;;;;9.10;2.90;;;;;;;;;;3394232;42;20157;-63
2022/09/12 00:16:39;;;;;;;8.02;2.90;;;;;;;;;;3384570;42;20114;-63
2022/09/12 00:19:05;;;;;;;11.57;3.10;;;;;;;;;;3384954;42;20126;-63
2022/09/12 00:21:33;;;;;;;7.75;2.67;;;;;;;;;;3384663;42;20075;-62
2022/09/12 00:23:59;;;;;;;7.78;2.95;;;;;;;;;;3384751;42;20200;-62
2022/09/12 00:26:25;;;;;;;7.00;2.90;;;;;;;;;;3384923;42;20102;-63
2022/09/12 00:28:51;;;;;;;8.57;3.03;;;;;;;;;;3395046;42;20175;-63
2022/09/12 00:31:19;;;;;;;7.87;3.00;;;;;;;;;;3377103;42;20925;-63
2022/09/12 00:33:45;;;;;;;7.28;2.88;;;;;;;;;;3393586;42;20215;-63
2022/09/12 00:36:14;;;;;;;7.60;2.92;;;;;;;;;;3375989;42;20146;-64
2022/09/12 00:38:40;;;;;;;7.22;3.00;;;;;;;;;;3382923;42;20089;-63
2022/09/12 00:41:07;;;;;;;7.55;3.42;;;;;;;;;;3393349;42;20105;-62
2022/09/12 00:43:37;;;;;;;8.90;3.83;;;;;;;;;;3393302;42;20086;-63
2022/09/12 00:46:27;;;;;;;7.40;2.85;;;;;;;;;;3383492;42;20237;-62
2022/09/12 00:48:59;;;;;;;8.43;2.83;;;;;;;;;;3383552;42;20105;-62
2022/09/12 00:51:25;;;;;;;7.97;3.00;;;;;;;;;;3393211;42;20698;-63
2022/09/12 00:53:51;;;;;;;9.05;2.80;;;;;;;;;;3383091;42;20134;-64
2022/09/12 00:56:17;;;;;;;7.30;3.10;;;;;;;;;;3389873;42;20106;-62
2022/09/12 00:58:47;;;;;;;7.78;3.20;;;;;;;;;;3393261;42;20074;-63
2022/09/12 01:01:13;;;;;;;9.65;3.13;;;;;;;;;;3382803;42;20083;-62
2022/09/12 01:03:39;;;;;;;6.80;2.78;;;;;;;;;;3383878;42;20082;-63
2022/09/12 01:06:13;;;;;;;7.57;2.63;;;;;;;;;;3393134;42;20110;-64
2022/09/12 01:08:40;;;;;;;7.88;3.17;;;;;;;;;;3375446;42;20169;-64
2022/09/12 01:11:06;;;;;;;8.15;3.15;;;;;;;;;;3372195;42;20118;-63
2022/09/12 01:13:33;;;;;;;7.45;3.20;;;;;;;;;;3380377;42;20110;-64
2022/09/12 01:16:01;;;;;;;8.10;3.30;;;;;;;;;;3393051;42;20133;-64
2022/09/12 01:18:36;;;;;;;8.43;3.10;;;;;;;;;;3375321;42;20101;-63
2022/09/12 01:21:10;;;;;;;8.82;3.20;;;;;;;;;;3393385;42;20120;-64
2022/09/12 01:23:51;;;;;;;8.48;3.30;;;;;;;;;;3384277;42;20105;-64
2022/09/12 01:26:52;;;;;;;6.90;2.90;;;;;;;;;;3378974;42;20099;-63
2022/09/12 01:29:52;;;;;;;7.70;3.30;;;;;;;;;;3384176;42;20113;-62
2022/09/12 01:32:53;;;;;;;9.93;3.17;;;;;;;;;;3390726;42;20135;-61
2022/09/12 01:35:25;;;;;;;8.50;3.08;;;;;;;;;;3384062;42;20113;-63
2022/09/12 01:38:22;;;;;;;7.60;3.22;;;;;;;;;;3394052;42;20136;-62
2022/09/12 01:40:59;;;;;;;8.40;2.90;;;;;;;;;;3387768;42;20086;-63
2022/09/12 01:44:04;;;;;;;7.40;3.00;;;;;;;;;;3392773;42;20103;-63
2022/09/12 01:46:32;;;;;;;9.17;3.07;;;;;;;;;;3367625;42;20139;-63
2022/09/12 01:49:31;;;;;;;9.50;4.00;;;;;;;;;;3392878;42;20153;-62
2022/09/12 01:52:31;;;;;;;8.88;3.75;;;;;;;;;;3375446;42;20098;-62
2022/09/12 01:55:25;;;;;;;8.57;3.30;;;;;;;;;;3378038;42;20158;-63
2022/09/12 01:57:59;;;;;;;8.60;3.90;;;;;;;;;;3371698;42;20098;-63
2022/09/12 02:00:25;;;;;;;9.20;3.50;;;;;;;;;;3384615;42;20095;-63
2022/09/12 02:03:01;;;;;;;8.70;3.47;;;;;;;;;;3369362;42;20098;-63
2022/09/12 02:05:38;;;;;;;9.77;3.50;;;;;;;;;;3375284;42;20157;-63
2022/09/12 02:08:16;;;;;;;8.38;3.47;;;;;;;;;;3377080;42;20098;-62
2022/09/12 02:10:45;;;;;;;7.90;3.42;;;;;;;;;;3382221;42;20136;-62
2022/09/12 02:13:14;;;;;;;8.80;3.67;;;;;;;;;;3384339;42;20093;-62
2022/09/12 02:15:43;;;;;;;10.30;3.40;;;;;;;;;;3376393;42;20094;-63
2022/09/12 02:18:11;;;;;;;9.02;3.13;;;;;;;;;;3382537;42;20087;-63
2022/09/12 02:20:37;;;;;;;13.57;3.97;;;;;;;;;;3382213;42;20078;-64
2022/09/12 02:23:08;;;;;;;10.13;3.35;;;;;;;;;;3382540;42;20082;-63
2022/09/12 02:25:42;;;;;;;7.67;3.27;;;;;;;;;;3375910;42;20565;-62
2022/09/12 02:28:29;;;;;;;9.77;4.05;;;;;;;;;;3382571;42;20195;-63
2022/09/12 02:31:22;;;;;;;11.18;3.28;;;;;;;;;;3378101;42;20105;-63
2022/09/12 02:33:52;;;;;;;8.15;3.58;;;;;;;;;;3382463;42;20079;-63
2022/09/12 02:36:30;;;;;;;11.30;3.60;;;;;;;;;;3391533;42;20113;-64
2022/09/12 02:38:56;;;;;;;8.53;3.80;;;;;;;;;;3377116;42;20090;-65
2022/09/12 02:41:22;;;;;;;9.50;4.00;;;;;;;;;;3392999;42;20340;-61
2022/09/12 02:43:48;;;;;;;11.52;3.33;;;;;;;;;;3384162;42;20643;-63
2022/09/12 02:46:23;;;;;;;8.20;3.60;;;;;;;;;;3378168;42;20103;-63
2022/09/12 02:48:49;;;;;;;10.65;3.67;;;;;;;;;;3384104;42;20106;-63
2022/09/12 02:51:15;;;;;;;11.13;4.30;;;;;;;;;;3371570;42;20244;-64
2022/09/12 02:53:41;;;;;;;8.55;3.72;;;;;;;;;;3376430;42;20584;-64
2022/09/12 02:56:11;;;;;;;11.18;3.90;;;;;;;;;;3384809;42;20168;-62
2022/09/12 02:58:37;;;;;;;9.80;3.15;;;;;;;;;;3376924;42;20152;-63
2022/09/12 03:01:16;;;;;;;9.23;3.60;;;;;;;;;;3394371;42;20098;-62
2022/09/12 03:03:51;;;;;;;8.07;3.30;;;;;;;;;;3370521;42;20082;-62
2022/09/12 03:06:30;;;;;;;9.02;3.72;;;;;;;;;;3395321;42;20141;-64
2022/09/12 03:09:09;;;;;;;8.13;3.15;;;;;;;;;;3394549;42;20094;-63
2022/09/12 03:12:17;;;;;;;9.68;3.58;;;;;;;;;;3367847;42;20591;-64
2022/09/12 03:14:48;;;;;;;8.83;3.50;;;;;;;;;;3385413;42;20091;-65
2022/09/12 03:17:40;;;;;;;7.70;3.38;;;;;;;;;;3395105;42;20473;-64
2022/09/12 03:20:17;;;;;;;7.85;3.42;;;;;;;;;;3371562;42;20079;-63
2022/09/12 03:22:46;;;;;;;9.32;3.92;;;;;;;;;;3382345;42;20155;-63
2022/09/12 03:25:31;;;;;;;9.75;3.67;;;;;;;;;;3395178;42;20103;-63
2022/09/12 03:28:00;;;;;;;13.10;4.40;;;;;;;;;;3384019;42;20106;-63
2022/09/12 03:30:26;;;;;;;9.45;3.80;;;;;;;;;;3376024;42;20105;-63
2022/09/12 03:32:53;;;;;;;17.05;4.80;;;;;;;;;;3389784;42;20091;-63
2022/09/12 03:35:20;;;;;;;12.80;4.75;;;;;;;;;;3385003;42;20491;-63
2022/09/12 03:37:47;;;;;;;12.68;3.80;;;;;;;;;;3393893;42;20499;-63
2022/09/12 03:40:14;;;;;;;14.83;5.23;;;;;;;;;;3385448;42;20121;-64
2022/09/12 03:42:40;;;;;;;13.02;4.57;;;;;;;;;;3395249;42;20093;-62
2022/09/12 03:45:07;;;;;;;14.43;4.60;;;;;;;;;;3376382;42;20196;-62
2022/09/12 03:47:33;;;;;;;13.18;4.80;;;;;;;;;;3389775;42;20105;-64
2022/09/12 03:49:59;;;;;;;13.88;4.53;;;;;;;;;;3393759;42;20114;-64
2022/09/12 03:52:25;;;;;;;12.30;4.47;;;;;;;;;;3393468;42;20094;-63
2022/09/12 03:54:51;;;;;;;11.80;4.88;;;;;;;;;;3394112;42;20090;-64
2022/09/12 03:57:17;;;;;;;11.05;4.40;;;;;;;;;;3393773;42;20110;-63
2022/09/12 03:59:43;;;;;;;11.68;4.70;;;;;;;;;;3391821;42;20450;-63
2022/09/12 04:02:12;;;;;;;11.20;4.70;;;;;;;;;;3385018;42;20097;-63
2022/09/12 04:04:40;;;;;;;9.83;4.33;;;;;;;;;;3383059;42;20110;-66
2022/09/12 04:07:06;;;;;;;10.75;4.50;;;;;;;;;;3382582;42;20094;-64
2022/09/12 04:09:32;;;;;;;10.13;4.63;;;;;;;;;;3390577;42;20144;-63
2022/09/12 04:11:58;;;;;;;9.18;4.22;;;;;;;;;;3393441;42;20500;-64
2022/09/12 04:14:24;;;;;;;8.97;4.20;;;;;;;;;;3384515;42;20094;-65
2022/09/12 04:16:50;;;;;;;10.70;4.30;;;;;;;;;;3393715;42;20301;-62
2022/09/12 04:19:17;;;;;;;11.52;4.43;;;;;;;;;;3393092;42;20142;-62
2022/09/12 04:21:43;;;;;;;9.55;4.50;;;;;;;;;;3393542;42;20078;-63
2022/09/12 04:24:09;;;;;;;11.75;4.85;;;;;;;;;;3384227;42;20552;-63
2022/09/12 04:26:35;;;;;;;10.00;3.90;;;;;;;;;;3384558;42;20104;-60
2022/09/12 04:29:00;;;;;;;10.55;4.55;;;;;;;;;;3393630;42;20097;-62
2022/09/12 04:31:26;;;;;;;14.38;4.80;;;;;;;;;;3393628;42;20104;-65
2022/09/12 04:33:57;;;;;;;10.68;4.47;;;;;;;;;;3384369;42;20087;-62
2022/09/12 04:36:23;;;;;;;10.43;4.28;;;;;;;;;;3376049;42;20101;-63
2022/09/12 04:38:49;;;;;;;10.07;4.70;;;;;;;;;;3388733;42;20365;-63
2022/09/12 04:41:22;;;;;;;12.05;4.53;;;;;;;;;;3394399;42;20091;-64
2022/09/12 04:43:53;;;;;;;9.40;4.30;;;;;;;;;;3383470;42;20087;-62
2022/09/12 04:46:20;;;;;;;9.23;4.75;;;;;;;;;;3383816;42;20090;-61
2022/09/12 04:48:46;;;;;;;11.18;4.80;;;;;;;;;;3384356;42;20160;-66
2022/09/12 04:51:21;;;;;;;10.43;4.27;;;;;;;;;;3384752;42;20153;-61
2022/09/12 04:53:51;;;;;;;9.32;4.80;;;;;;;;;;3382858;42;20599;-63
2022/09/12 04:56:17;;;;;;;12.50;5.28;;;;;;;;;;3384365;42;20082;-61
2022/09/12 04:58:43;;;;;;;12.20;5.68;;;;;;;;;;3393193;42;20083;-63
2022/09/12 05:01:14;;;;;;;11.10;5.10;;;;;;;;;;3393012;42;20554;-63
2022/09/12 05:03:42;;;;;;;12.63;5.43;;;;;;;;;;3393290;42;20093;-62
2022/09/12 05:06:13;;;;;;;14.57;5.53;;;;;;;;;;3393022;42;20153;-62
2022/09/12 05:08:39;;;;;;;11.63;5.38;;;;;;;;;;3393691;42;20091;-70
2022/09/12 05:11:10;;;;;;;12.25;5.43;;;;;;;;;;3394311;42;20152;-62
2022/09/12 05:13:36;;;;;;;12.05;5.53;;;;;;;;;;3393918;42;20572;-62
2022/09/12 05:16:03;;;;;;;12.13;6.17;;;;;;;;;;3382890;42;20079;-62
2022/09/12 05:18:33;;;;;;;12.75;5.72;;;;;;;;;;3394949;42;20086;-62
2022/09/12 05:20:59;;;;;;;12.45;5.90;;;;;;;;;;3375487;42;20619;-63
2022/09/12 05:23:26;;;;;;;11.45;5.50;;;;;;;;;;3389507;42;20078;-63
2022/09/12 05:25:54;;;;;;;12.52;5.57;;;;;;;;;;3392494;42;20563;-60
2022/09/12 05:28:20;;;;;;;15.00;5.97;;;;;;;;;;3383513;42;20095;-62
2022/09/12 05:30:46;;;;;;;12.43;6.00;;;;;;;;;;3382233;42;20083;-62
2022/09/12 05:33:13;;;;;;;14.13;5.88;;;;;;;;;;3388512;42;20083;-61
2022/09/12 05:35:39;;;;;;;12.95;5.72;;;;;;;;;;3392616;42;20094;-63
2022/09/12 05:38:06;;;;;;;11.90;6.00;;;;;;;;;;3378745;42;20143;-62
2022/09/12 05:40:32;;;;;;;11.53;5.50;;;;;;;;;;3380198;42;20110;-63
2022/09/12 05:42:58;;;;;;;11.77;5.43;;;;;;;;;;3375995;42;20150;-61
2022/09/12 05:45:25;;;;;;;12.30;5.43;;;;;;;;;;3366685;42;20572;-65
2022/09/12 05:47:55;;;;;;;10.98;5.43;;;;;;;;;;3378567;42;20151;-62
2022/09/12 05:50:21;;;;;;;14.15;5.85;;;;;;;;;;3385060;42;20208;-62
2022/09/12 05:52:47;;;;;;;11.00;5.07;;;;;;;;;;3378898;42;20099;-61
2022/09/12 05:55:13;;;;;;;12.55;4.72;;;;;;;;;;3379618;42;20087;-64
2022/09/12 05:57:42;;;;;;;10.95;5.00;;;;;;;;;;3377641;42;20184;-61
2022/09/12 06:00:08;;;;;;;11.85;5.43;;;;;;;;;;3365685;42;20638;-61
2022/09/12 06:02:34;;;;;;;10.38;5.18;;;;;;;;;;3374682;42;20095;-61
2022/09/12 06:05:00;;;;;;;9.43;4.60;;;;;;;;;;3365674;42;20188;-62
2022/09/12 06:07:26;;;;;;;9.93;4.80;;;;;;;;;;3374143;42;20109;-60
2022/09/12 06:09:52;;;;;;;9.10;4.38;;;;;;;;;;3374239;42;20481;-62
2022/09/12 06:12:18;;;;;;;10.50;5.07;;;;;;;;;;3374400;42;20165;-62
2022/09/12 06:14:45;;;;;;;13.43;6.20;;;;;;;;;;3374440;42;20169;-61
2022/09/12 06:17:11;;;;;;;12.40;5.97;;;;;;;;;;3374568;42;20165;-62
2022/09/12 06:19:37;;;;;;;12.85;5.47;;;;;;;;;;3375021;42;20091;-62
2022/09/12 06:22:03;;;;;;;10.93;5.45;;;;;;;;;;3376080;42;20611;-63
2022/09/12 06:24:29;;;;;;;14.03;5.80;;;;;;;;;;3376187;42;20557;-63
2022/09/12 06:26:55;;;;;;;12.88;6.03;;;;;;;;;;3376111;42;20087;-62
2022/09/12 06:29:21;;;;;;;12.55;5.80;;;;;;;;;;3375012;42;20571;-62
2022/09/12 06:31:47;;;;;;;12.00;6.20;;;;;;;;;;3376121;42;20083;-62
2022/09/12 06:34:14;;;;;;;12.13;6.23;;;;;;;;;;3376383;42;20655;-60
2022/09/12 06:36:42;;;;;;;12.70;6.07;;;;;;;;;;3369462;42;20163;-61
2022/09/12 06:39:16;;;;;;;11.93;5.60;;;;;;;;;;3374878;42;20095;-63
2022/09/12 06:41:42;;;;;;;11.68;5.57;;;;;;;;;;3377345;42;20092;-62
2022/09/12 06:44:12;;;;;;;12.18;5.90;;;;;;;;;;3387833;42;20204;-62
2022/09/12 06:46:38;;;;;;;10.83;5.80;;;;;;;;;;3385570;42;20102;-61
2022/09/12 06:49:04;;;;;;;12.45;5.60;;;;;;;;;;3394921;42;20174;-63
2022/09/12 06:51:30;;;;;;;10.38;4.97;;;;;;;;;;3399358;42;20165;-62
2022/09/12 06:53:57;;;;;;;11.82;5.65;;;;;;;;;;3381981;42;20142;-60
2022/09/12 06:56:25;;;;;;;10.63;5.28;;;;;;;;;;3391965;42;20527;-62
2022/09/12 06:58:51;;;;;;;11.80;5.37;;;;;;;;;;3391808;42;20136;-63
2022/09/12 07:01:21;;;;;;;8.55;4.43;;;;;;;;;;3382083;42;20628;-61
2022/09/12 07:03:49;;;;;;;9.10;4.80;;;;;;;;;;3391722;42;20142;-62
2022/09/12 07:06:16;;;;;;;10.65;4.57;;;;;;;;;;3373080;42;20198;-62
2022/09/12 07:08:42;;;;;;;8.88;4.60;;;;;;;;;;3389553;42;20105;-62
2022/09/12 07:11:18;;;;;;;9.67;5.43;;;;;;;;;;3373233;42;20091;-62
2022/09/12 07:13:46;;;;;;;8.93;4.53;;;;;;;;;;3391463;42;20097;-61
2022/09/12 07:16:12;;;;;;;8.75;4.70;;;;;;;;;;3391681;42;20092;-62
2022/09/12 07:18:38;;;;;;;7.97;4.13;;;;;;;;;;3382395;42;20871;-62
2022/09/12 07:21:13;;;;;;;9.35;4.47;;;;;;;;;;3390674;42;20138;-63
2022/09/12 07:23:40;;;;;;;9.90;4.23;;;;;;;;;;3391207;42;20101;-62
2022/09/12 07:26:08;;;;;;;8.07;4.03;;;;;;;;;;3382193;42;20091;-62
2022/09/12 07:28:34;;;;;;;7.70;3.80;;;;;;;;;;3391168;42;20101;-64
2022/09/12 07:31:08;;;;;;;9.32;4.35;;;;;;;;;;3372404;42;20087;-63
2022/09/12 07:33:35;;;;;;;8.38;4.03;;;;;;;;;;3390196;42;20094;-64
2022/09/12 07:36:10;;;;;;;8.07;3.83;;;;;;;;;;3391447;42;20588;-61
2022/09/12 07:38:37;;;;;;;8.93;4.15;;;;;;;;;;3382373;42;20144;-62
2022/09/12 07:41:13;;;;;;;7.82;4.00;;;;;;;;;;3383038;42;20116;-63
2022/09/12 07:43:40;;;;;;;8.25;3.90;;;;;;;;;;3394092;42;20553;-61
2022/09/12 07:46:06;;;;;;;9.98;3.72;;;;;;;;;;3396264;42;20099;-62
2022/09/12 07:48:32;;;;;;;7.60;3.53;;;;;;;;;;3397335;42;20154;-61
2022/09/12 07:51:06;;;;;;;7.80;3.80;;;;;;;;;;3396433;42;20625;-61
2022/09/12 07:53:36;;;;;;;9.25;3.70;;;;;;;;;;3395248;42;20082;-63
2022/09/12 07:56:03;;;;;;;7.85;4.00;;;;;;;;;;3378488;42;20130;-63
2022/09/12 07:58:30;;;;;;;7.88;3.75;;;;;;;;;;3389374;42;20095;-63
2022/09/12 08:01:07;;;;;;;6.87;3.33;;;;;;;;;;3394160;42;20130;-60
2022/09/12 08:03:34;;;;;;;7.25;3.55;;;;;;;;;;3385387;42;20090;-63
2022/09/12 08:06:10;;;;;;;8.05;3.95;;;;;;;;;;3396690;42;20748;-63
2022/09/12 08:08:36;;;;;;;7.72;3.45;;;;;;;;;;3380084;42;20097;-64
2022/09/12 08:11:04;;;;;;;8.00;3.70;;;;;;;;;;3384993;42;20090;-65
2022/09/12 08:13:31;;;;;;;8.57;3.80;;;;;;;;;;3397565;42;20125;-63
2022/09/12 08:16:01;;;;;;;7.32;3.60;;;;;;;;;;3393413;42;20562;-64
2022/09/12 08:18:27;;;;;;;8.93;3.50;;;;;;;;;;3393293;42;20141;-62
2022/09/12 08:21:00;;;;;;;8.55;4.07;;;;;;;;;;3383095;42;20146;-62
2022/09/12 08:23:27;;;;;;;8.32;3.90;;;;;;;;;;3381546;42;20136;-64
2022/09/12 08:26:03;;;;;;;8.90;4.20;;;;;;;;;;3382974;42;20102;-64
2022/09/12 08:28:29;;;;;;;9.65;3.70;;;;;;;;;;3380754;42;20104;-62
2022/09/12 08:31:06;;;;;;;7.50;3.40;;;;;;;;;;3384808;42;20138;-63
2022/09/12 08:33:32;;;;;;;8.32;3.72;;;;;;;;;;3389486;42;20091;-62
2022/09/12 08:36:09;;;;;;;8.20;3.70;;;;;;;;;;3382246;42;20103;-63
2022/09/12 08:38:36;;;;;;;8.97;3.63;;;;;;;;;;3383053;42;20099;-62
2022/09/12 08:41:20;;;;;;;8.18;3.40;;;;;;;;;;3384200;42;20134;-64
2022/09/12 08:44:10;;;;;;;8.35;3.80;;;;;;;;;;3382496;42;20090;-62
2022/09/12 08:47:11;;;;;;;10.10;3.92;;;;;;;;;;3382167;42;20091;-64
2022/09/12 08:49:59;;;;;;;8.25;3.35;;;;;;;;;;3364762;42;20556;-62
2022/09/12 08:52:50;;;;;;;8.17;3.57;;;;;;;;;;3380702;42;20110;-63
2022/09/12 08:55:24;;;;;;;8.00;3.75;;;;;;;;;;3383946;42;20090;-64
2022/09/12 08:57:50;;;;;;;7.50;3.22;;;;;;;;;;3381014;42;20509;-64
2022/09/12 09:00:18;;;;;;;9.35;3.40;;;;;;;;;;3380730;42;20090;-63
2022/09/12 09:03:01;;;;;;;7.75;3.20;;;;;;;;;;3376106;42;20858;-63
2022/09/12 09:05:48;;;;;;;8.27;3.70;;;;;;;;;;3382914;42;20098;-63
2022/09/12 09:08:39;;;;;;;7.90;4.00;;;;;;;;;;3381701;42;20096;-63
2022/09/12 09:11:22;;;;;;;10.63;4.03;;;;;;;;;;3382958;42;20146;-63
2022/09/12 09:17:09;;;;;;;9.50;4.03;;;;;;;;;;3383890;42;20105;-63
2022/09/12 09:19:46;;;;;;;7.13;3.53;;;;;;;;;;3371500;42;20142;-66
2022/09/12 09:22:22;;;;;;;8.63;4.00;;;;;;;;;;3373278;42;20087;-61
2022/09/12 09:24:50;;;;;;;7.68;3.40;;;;;;;;;;3382335;42;20099;-62
2022/09/12 09:27:30;;;;;;;7.68;3.70;;;;;;;;;;3382117;42;20139;-64
2022/09/12 09:29:56;;;;;;;6.68;2.95;;;;;;;;;;3381752;42;20102;-62
2022/09/12 09:32:28;;;;;;;7.40;3.07;;;;;;;;;;3380306;42;20111;-64
2022/09/12 09:34:55;;;;;;;6.65;3.10;;;;;;;;;;3380184;42;20102;-63
2022/09/12 09:37:52;;;;;;;7.25;3.13;;;;;;;;;;3381157;42;20159;-65
2022/09/12 09:40:49;;;;;;;7.53;3.50;;;;;;;;;;3379007;42;20581;-65
2022/09/12 09:43:23;;;;;;;6.87;2.83;;;;;;;;;;3385839;42;20098;-62
2022/09/12 09:45:49;;;;;;;6.22;2.70;;;;;;;;;;3383640;42;20180;-62
2022/09/12 09:48:18;;;;;;;5.75;2.47;;;;;;;;;;3383569;42;20094;-64
2022/09/12 09:50:45;;;;;;;7.97;2.80;;;;;;;;;;3392459;42;20223;-63
2022/09/12 09:53:28;;;;;;;8.15;2.80;;;;;;;;;;3381174;42;20095;-63
2022/09/12 09:55:54;;;;;;;6.30;2.70;;;;;;;;;;3381491;42;20110;-63
2022/09/12 09:58:31;;;;;;;6.82;3.30;;;;;;;;;;3372071;42;20094;-63
2022/09/12 10:01:01;;;;;;;6.72;3.10;;;;;;;;;;3381889;42;20551;-62
2022/09/12 10:03:29;;;;;;;7.22;2.80;;;;;;;;;;3383242;42;20142;-61
2022/09/12 10:06:06;;;;;;;8.85;3.20;;;;;;;;;;3384398;42;20116;-62
2022/09/12 10:08:34;;;;;;;6.43;2.70;;;;;;;;;;3375274;42;20295;-62
2022/09/12 10:11:15;;;;;;;7.30;3.28;;;;;;;;;;3388373;42;20189;-63
2022/09/12 10:13:56;;;;;;;7.10;2.85;;;;;;;;;;3387695;42;20090;-62
2022/09/12 10:16:23;;;;;;;6.75;2.58;;;;;;;;;;3393052;42;20078;-63
2022/09/12 10:18:51;;;;;;;5.97;2.60;;;;;;;;;;3382383;42;20091;-63
2022/09/12 10:21:47;;;;;;;5.90;2.50;;;;;;;;;;3392573;42;20572;-63
2022/09/12 10:24:15;;;;;;;6.32;2.80;;;;;;;;;;3379351;42;20273;-62
2022/09/12 10:27:11;;;;;;;7.85;2.70;;;;;;;;;;3393020;42;20541;-63
2022/09/12 10:29:53;;;;;;;6.45;2.60;;;;;;;;;;3381539;42;20117;-64
2022/09/12 10:32:45;;;;;;;6.57;2.90;;;;;;;;;;3382325;42;20122;-63
2022/09/12 10:35:29;;;;;;;6.87;2.60;;;;;;;;;;3376135;42;20516;-63
2022/09/12 10:38:17;;;;;;;5.93;2.45;;;;;;;;;;3383882;42;20082;-63
2022/09/12 10:40:43;;;;;;;7.47;3.30;;;;;;;;;;3383410;42;20177;-62
2022/09/12 10:43:34;;;;;;;6.20;2.50;;;;;;;;;;3375753;42;20210;-63
2022/09/12 10:46:19;;;;;;;5.60;2.42;;;;;;;;;;3381745;42;20091;-62
2022/09/12 10:48:55;;;;;;;5.40;2.17;;;;;;;;;;3390090;42;20079;-65
2022/09/12 10:51:26;;;;;;;6.03;2.53;;;;;;;;;;3383585;42;20094;-66
2022/09/12 10:53:58;;;;;;;5.45;2.13;;;;;;;;;;3383496;42;20090;-64
2022/09/12 10:56:42;;;;;;;7.18;2.40;;;;;;;;;;3375281;42;20121;-64
2022/09/12 10:59:27;;;;;;;6.50;2.65;;;;;;;;;;3382167;42;20513;-65
2022/09/12 11:02:01;;;;;;;5.90;2.60;;;;;;;;;;3384962;42;20469;-65
2022/09/12 11:04:48;;;;;;;6.63;2.63;;;;;;;;;;3375624;42;20083;-65
2022/09/12 11:07:26;;;;;;;5.95;2.50;;;;;;;;;;3398269;42;20104;-69
2022/09/12 11:10:10;;;;;;;6.88;2.70;;;;;;;;;;3397945;42;20763;-63
2022/09/12 11:12:46;;;;;;;6.90;3.15;;;;;;;;;;3390735;42;20584;-63
2022/09/12 11:16:06;;;;;;;6.00;2.50;;;;;;;;;;3381877;42;20082;-64
2022/09/12 11:18:37;;;;;;;5.43;2.13;;;;;;;;;;3357124;42;20135;-65
2022/09/12 11:21:31;;;;;;;8.20;2.40;;;;;;;;;;3356710;42;20232;-66
2022/09/12 11:24:06;;;;;;;6.10;2.35;;;;;;;;;;3379349;42;20105;-64
2022/09/12 11:27:03;;;;;;;6.30;2.10;;;;;;;;;;3393809;42;20090;-64
2022/09/12 11:29:37;;;;;;;7.93;2.50;;;;;;;;;;3393979;42;20086;-62
2022/09/12 11:32:36;;;;;;;6.55;2.45;;;;;;;;;;3393859;42;20094;-63
2022/09/12 11:35:32;;;;;;;7.13;2.60;;;;;;;;;;3378792;42;20168;-63
2022/09/12 11:38:32;;;;;;;6.25;2.75;;;;;;;;;;3389379;42;20083;-62
2022/09/12 11:41:19;;;;;;;7.47;2.67;;;;;;;;;;3394177;42;20086;-63
2022/09/12 11:43:48;;;;;;;6.00;2.70;;;;;;;;;;3372158;42;20094;-60
2022/09/12 11:46:21;;;;;;;6.18;2.63;;;;;;;;;;3391075;42;20539;-63
2022/09/12 11:48:53;;;;;;;10.93;2.80;;;;;;;;;;3387004;42;20081;-62
2022/09/12 11:51:29;;;;;;;6.22;2.60;;;;;;;;;;3388377;42;20102;-63
2022/09/12 11:54:15;;;;;;;6.88;2.80;;;;;;;;;;3377314;42;20183;-64
2022/09/12 11:56:44;;;;;;;7.13;2.90;;;;;;;;;;3386036;42;20091;-64
2022/09/12 11:59:43;;;;;;;6.90;2.83;;;;;;;;;;3384728;42;20192;-62
2022/09/12 12:02:16;;;;;;;7.50;2.70;;;;;;;;;;3370785;42;20155;-63
2022/09/12 12:05:19;;;;;;;8.10;2.78;;;;;;;;;;3384048;42;20209;-64
2022/09/12 12:07:52;;;;;;;7.38;2.70;;;;;;;;;;3382842;42;20142;-63
2022/09/12 12:10:36;;;;;;;6.50;2.97;;;;;;;;;;3392974;42;20573;-61
2022/09/12 12:13:39;;;;;;;7.32;2.95;;;;;;;;;;3393850;42;20456;-64
2022/09/12 12:16:18;;;;;;;7.07;3.10;;;;;;;;;;3395946;42;20087;-63
2022/09/12 12:18:44;;;;;;;8.40;3.10;;;;;;;;;;3394334;42;20161;-62
2022/09/12 12:21:30;;;;;;;8.23;3.17;;;;;;;;;;3375360;42;20548;-64
2022/09/12 12:24:08;;;;;;;7.70;3.00;;;;;;;;;;3393501;42;20090;-63
2022/09/12 12:26:45;;;;;;;8.07;2.90;;;;;;;;;;3393290;42;20506;-63
2022/09/12 12:29:12;;;;;;;8.30;2.75;;;;;;;;;;3387308;42;20086;-63
2022/09/12 12:32:02;;;;;;;7.13;2.92;;;;;;;;;;3384358;42;20082;-66
2022/09/12 12:34:36;;;;;;;7.45;2.90;;;;;;;;;;3393368;42;20122;-64
2022/09/12 12:37:20;;;;;;;6.57;2.80;;;;;;;;;;3374757;42;20118;-61
2022/09/12 12:39:47;;;;;;;7.03;2.85;;;;;;;;;;3379526;42;20118;-62
2022/09/12 12:42:34;;;;;;;6.93;2.90;;;;;;;;;;3380344;42;20079;-63
2022/09/12 12:45:25;;;;;;;8.18;2.90;;;;;;;;;;3390462;42;20702;-63
2022/09/12 12:47:53;;;;;;;7.63;3.17;;;;;;;;;;3387388;42;20602;-63
2022/09/12 12:50:19;;;;;;;6.73;3.10;;;;;;;;;;3369115;42;20111;-63
2022/09/12 12:53:02;;;;;;;7.03;2.95;;;;;;;;;;3393258;42;20167;-64
2022/09/12 12:55:42;;;;;;;6.65;3.08;;;;;;;;;;3382572;42;20089;-62
2022/09/12 12:58:20;;;;;;;7.55;3.00;;;;;;;;;;3391686;42;20129;-63
2022/09/12 13:00:46;;;;;;;6.17;2.90;;;;;;;;;;3392846;42;20106;-63
2022/09/12 13:04:05;;;;;;;7.15;3.03;;;;;;;;;;3383600;42;20090;-65
2022/09/12 13:06:38;;;;;;;6.78;2.70;;;;;;;;;;3387171;42;20086;-63
2022/09/12 13:09:05;;;;;;;7.40;3.10;;;;;;;;;;3392561;42;20090;-63
2022/09/12 13:11:33;;;;;;;6.28;2.80;;;;;;;;;;3393043;42;20146;-63
2022/09/12 13:14:04;;;;;;;7.93;3.33;;;;;;;;;;3383912;42;20095;-62
2022/09/12 13:16:31;;;;;;;7.00;2.78;;;;;;;;;;3376560;42;20078;-62
2022/09/12 13:18:59;;;;;;;7.88;2.88;;;;;;;;;;3398468;42;20125;-63
2022/09/12 13:21:25;;;;;;;7.43;3.08;;;;;;;;;;3378102;42;20630;-62
2022/09/12 13:24:11;;;;;;;8.82;2.80;;;;;;;;;;3394180;42;20094;-63
2022/09/12 13:26:42;;;;;;;8.83;3.00;;;;;;;;;;3382622;42;20557;-63
2022/09/12 13:29:13;;;;;;;8.23;3.03;;;;;;;;;;3379075;42;20123;-62
2022/09/12 13:31:39;;;;;;;7.22;3.00;;;;;;;;;;3386578;42;20160;-62
2022/09/12 13:34:06;;;;;;;6.20;2.75;;;;;;;;;;3379844;42;20090;-64
2022/09/12 13:37:09;;;;;;;6.95;3.05;;;;;;;;;;3387018;42;20142;-63
2022/09/12 13:40:26;;;;;;;7.23;2.80;;;;;;;;;;3376623;42;20297;-63
2022/09/12 13:43:01;;;;;;;6.97;3.00;;;;;;;;;;3371923;42;20090;-63
2022/09/12 13:45:27;;;;;;;7.57;3.10;;;;;;;;;;3382705;42;20102;-63
2022/09/12 13:48:00;;;;;;;7.25;3.10;;;;;;;;;;3382680;42;20160;-64
2022/09/12 13:50:50;;;;;;;7.15;3.38;;;;;;;;;;3375841;42;20142;-63
2022/09/12 13:53:18;;;;;;;6.87;3.00;;;;;;;;;;3382631;42;20130;-66
2022/09/12 13:55:46;;;;;;;9.52;3.10;;;;;;;;;;3383069;42;20590;-64
2022/09/12 13:58:34;;;;;;;6.72;2.78;;;;;;;;;;3375653;42;20150;-63
2022/09/12 14:01:09;;;;;;;7.20;2.60;;;;;;;;;;3382007;42;20093;-67
2022/09/12 14:06:27;;;;;;;8.20;3.40;;;;;;;;;;3392346;42;20093;-64
2022/09/12 14:09:00;;;;;;;10.50;3.10;;;;;;;;;;3392229;42;20102;-62
2022/09/12 14:11:27;;;;;;;6.32;2.80;;;;;;;;;;3374868;42;20105;-64
2022/09/12 14:13:54;;;;;;;7.25;2.75;;;;;;;;;;3379704;42;20087;-62
2022/09/12 14:16:22;;;;;;;6.13;2.70;;;;;;;;;;3392430;42;20670;-63
2022/09/12 14:18:48;;;;;;;7.27;2.80;;;;;;;;;;3371741;42;20091;-62
2022/09/12 14:21:27;;;;;;;6.97;3.17;;;;;;;;;;3382805;42;20131;-63
2022/09/12 14:23:54;;;;;;;6.30;2.60;;;;;;;;;;3376166;42;20150;-63
2022/09/12 14:26:21;;;;;;;6.47;3.08;;;;;;;;;;3386406;42;20597;-63
2022/09/12 14:28:48;;;;;;;7.75;3.22;;;;;;;;;;3386594;42;20153;-63
2022/09/12 14:31:17;;;;;;;7.27;2.70;;;;;;;;;;3378207;42;20090;-61
2022/09/12 14:33:53;;;;;;;8.40;3.47;;;;;;;;;;3394954;42;20216;-63
2022/09/12 14:36:26;;;;;;;8.27;3.20;;;;;;;;;;3385370;42;20090;-64
2022/09/12 14:39:02;;;;;;;9.02;3.17;;;;;;;;;;3395748;42;20141;-62
2022/09/12 14:41:30;;;;;;;8.98;3.30;;;;;;;;;;3384068;42;20481;-63
2022/09/12 14:44:02;;;;;;;10.23;3.30;;;;;;;;;;3375711;42;20103;-61
2022/09/12 14:46:31;;;;;;;7.53;3.20;;;;;;;;;;3380831;42;20092;-64
2022/09/12 14:49:35;;;;;;;7.97;3.47;;;;;;;;;;3386277;42;20091;-62
2022/09/12 14:52:06;;;;;;;7.32;2.90;;;;;;;;;;3382333;42;20131;-63
2022/09/12 14:54:36;;;;;;;7.57;3.30;;;;;;;;;;3380356;42;20095;-63
2022/09/12 14:57:33;;;;;;;8.97;3.10;;;;;;;;;;3384857;42;20129;-64
2022/09/12 15:00:19;;;;;;;8.00;3.50;;;;;;;;;;3381306;42;20831;-65
2022/09/12 15:02:46;;;;;;;9.27;3.47;;;;;;;;;;3378503;42;20552;-64
2022/09/12 15:05:12;;;;;;;8.25;3.42;;;;;;;;;;3381710;42;20566;-63
2022/09/12 15:07:59;;;;;;;7.73;3.20;;;;;;;;;;3383872;42;20156;-65
2022/09/12 15:10:30;;;;;;;9.90;3.40;;;;;;;;;;3383386;42;20572;-65
2022/09/12 15:13:13;;;;;;;9.90;3.70;;;;;;;;;;3384644;42;20103;-63
2022/09/12 15:15:40;;;;;;;9.93;3.40;;;;;;;;;;3383374;42;20233;-64
2022/09/12 15:18:06;;;;;;;7.90;3.67;;;;;;;;;;3375123;42;20684;-67
2022/09/12 15:20:32;;;;;;;10.53;4.57;;;;;;;;;;3384131;42;20110;-64
2022/09/12 15:22:58;;;;;;;10.38;4.10;;;;;;;;;;3374561;42;20174;-64
2022/09/12 15:25:24;;;;;;;10.73;4.00;;;;;;;;;;3368419;42;20095;-64